Time;durP1;ratioP1;P1;durP2;ratioP2;P2;SDS_P1;SDS_P2;PMS_P1;PMS_P2;Temp;Humidity;BMP_temperature;BMP_pressure;BME280_temperature;BME280_humidity;BME280_pressure;Samples;Min_cycle;Max_cycle;Signal;HPM_P1;HPM_P2
2022/10/13 03:01:40;;;;;;;;;;;11.10;99.90;;;;;;5659353;23;19937;-65
2022/10/13 03:04:06;;;;;;;;;;;11.00;99.90;;;;;;5021285;28;19926;-66
2022/10/13 03:06:33;;;;;;;;;;;11.20;99.90;;;;;;5023373;28;19925;-66
2022/10/13 03:09:00;;;;;;;;;;;11.10;99.90;;;;;;5019227;28;19956;-66
2022/10/13 03:11:26;;;;;;;;;;;11.10;99.90;;;;;;5009333;28;19925;-65
2022/10/13 03:13:53;;;;;;;;;;;11.10;99.90;;;;;;5000519;28;19926;-66
2022/10/13 03:16:20;;;;;;;;;;;11.10;99.90;;;;;;5010945;28;19926;-66
2022/10/13 03:18:48;;;;;;;;;;;11.00;99.90;;;;;;4998225;28;19926;-65
2022/10/13 03:21:15;;;;;;;;;;;11.00;99.90;;;;;;5011001;28;20311;-66
2022/10/13 03:23:41;;;;;;;;;;;10.90;99.90;;;;;;5008522;28;19925;-66
2022/10/13 03:26:08;;;;;;;;;;;10.90;99.90;;;;;;5003366;28;20366;-66
2022/10/13 03:28:35;;;;;;;;;;;10.90;99.90;;;;;;5007892;28;19926;-66
2022/10/13 03:31:03;;;;;;;;;;;10.90;99.90;;;;;;5004457;28;19976;-66
2022/10/13 03:33:29;;;;;;;;;;;10.90;99.90;;;;;;4998874;28;20015;-66
2022/10/13 03:36:00;;;;;;;;;;;10.80;99.90;;;;;;5004645;28;19933;-66
2022/10/13 03:38:27;;;;;;;;;;;10.80;99.90;;;;;;5001542;28;20393;-66
2022/10/13 03:40:53;;;;;;;;;;;10.90;99.90;;;;;;5001327;28;19933;-65
2022/10/13 03:43:20;;;;;;;;;;;10.80;99.90;;;;;;5002020;28;19930;-66
2022/10/13 03:45:54;;;;;;;;;;;10.80;99.90;;;;;;5005042;28;20419;-65
2022/10/13 03:48:20;;;;;;;;;;;10.80;99.90;;;;;;5000028;28;19926;-66
2022/10/13 03:50:47;;;;;;;;;;;10.80;99.90;;;;;;5007769;28;19934;-66
2022/10/13 03:53:16;;;;;;;;;;;10.80;99.90;;;;;;5004916;28;19926;-66
2022/10/13 03:55:42;;;;;;;;;;;10.80;99.90;;;;;;5000466;28;19973;-67
2022/10/13 03:58:09;;;;;;;;;;;10.80;99.90;;;;;;5002487;28;20340;-66
2022/10/13 04:00:36;;;;;;;;;;;10.80;99.90;;;;;;5005841;28;19933;-65
2022/10/13 04:03:03;;;;;;;;;;;10.90;99.90;;;;;;5000629;28;19932;-66
2022/10/13 04:05:29;;;;;;;;;;;10.90;99.90;;;;;;5004842;28;19936;-66
2022/10/13 04:07:56;;;;;;;;;;;10.90;99.90;;;;;;4999419;28;19980;-66
2022/10/13 04:10:28;;;;;;;;;;;10.80;99.90;;;;;;5007921;28;20010;-66
2022/10/13 04:12:55;;;;;;;;;;;10.90;99.90;;;;;;5004438;28;19932;-66
2022/10/13 04:15:22;;;;;;;;;;;10.90;99.90;;;;;;5004022;28;19926;-66
2022/10/13 04:17:49;;;;;;;;;;;10.90;99.90;;;;;;5001691;28;19929;-67
2022/10/13 04:20:16;;;;;;;;;;;10.90;99.90;;;;;;5001295;28;19930;-66
2022/10/13 04:22:42;;;;;;;;;;;10.90;99.90;;;;;;5002114;28;19979;-66
2022/10/13 04:25:09;;;;;;;;;;;11.00;99.90;;;;;;5003849;28;19933;-66
2022/10/13 04:27:38;;;;;;;;;;;10.90;99.90;;;;;;5004400;28;19926;-66
2022/10/13 04:30:06;;;;;;;;;;;10.90;99.90;;;;;;5007937;28;20024;-66
2022/10/13 04:32:32;;;;;;;;;;;10.80;99.90;;;;;;5008758;28;20461;-66
2022/10/13 04:35:02;;;;;;;;;;;10.80;99.90;;;;;;5001861;28;19929;-66
2022/10/13 04:37:29;;;;;;;;;;;10.80;99.90;;;;;;5002172;28;19933;-66
2022/10/13 04:39:55;;;;;;;;;;;10.70;99.90;;;;;;5006342;28;19926;-67
2022/10/13 04:42:22;;;;;;;;;;;10.70;99.90;;;;;;4998319;28;19932;-66
2022/10/13 04:44:50;;;;;;;;;;;10.70;99.90;;;;;;5007702;28;19957;-66
2022/10/13 04:47:21;;;;;;;;;;;10.70;99.90;;;;;;5007595;28;19925;-67
2022/10/13 04:49:47;;;;;;;;;;;10.70;99.90;;;;;;5002591;28;19956;-66
2022/10/13 04:52:14;;;;;;;;;;;10.70;99.90;;;;;;4998775;28;19926;-65
2022/10/13 04:54:42;;;;;;;;;;;10.70;99.90;;;;;;4992319;28;19933;-66
2022/10/13 04:57:08;;;;;;;;;;;10.70;99.90;;;;;;5000731;28;19926;-66
2022/10/13 04:59:35;;;;;;;;;;;10.80;99.90;;;;;;5005701;28;20008;-66
2022/10/13 05:02:03;;;;;;;;;;;10.80;99.90;;;;;;4998737;28;20340;-66
2022/10/13 05:04:30;;;;;;;;;;;10.70;99.90;;;;;;5000702;28;20032;-65
2022/10/13 05:06:57;;;;;;;;;;;10.70;99.90;;;;;;5008776;28;19971;-65
2022/10/13 05:09:23;;;;;;;;;;;10.70;99.90;;;;;;5010674;28;20420;-66
2022/10/13 05:11:50;;;;;;;;;;;10.70;99.90;;;;;;5010036;28;20307;-66
2022/10/13 05:14:17;;;;;;;;;;;10.70;99.90;;;;;;5004181;28;20299;-65
2022/10/13 05:16:44;;;;;;;;;;;10.80;99.90;;;;;;5010922;28;20299;-66
2022/10/13 05:19:16;;;;;;;;;;;10.80;99.90;;;;;;5010004;28;19925;-65
2022/10/13 05:21:43;;;;;;;;;;;10.70;99.90;;;;;;5006205;28;20344;-66
2022/10/13 05:24:12;;;;;;;;;;;10.80;99.90;;;;;;4994951;28;19926;-66
2022/10/13 05:26:40;;;;;;;;;;;10.80;99.90;;;;;;5010125;28;19933;-65
2022/10/13 05:29:07;;;;;;;;;;;10.80;99.90;;;;;;5007291;28;19973;-66
2022/10/13 05:31:35;;;;;;;;;;;10.80;99.90;;;;;;5005552;28;19925;-66
2022/10/13 05:34:02;;;;;;;;;;;10.80;99.90;;;;;;5009466;28;19929;-71
2022/10/13 05:36:31;;;;;;;;;;;10.70;99.90;;;;;;5002458;28;19925;-65
2022/10/13 05:38:58;;;;;;;;;;;10.70;99.90;;;;;;5001217;28;19934;-66
2022/10/13 05:41:26;;;;;;;;;;;10.70;99.90;;;;;;5005401;28;19980;-66
2022/10/13 05:43:54;;;;;;;;;;;10.60;99.90;;;;;;4999943;28;19926;-66
2022/10/13 05:46:21;;;;;;;;;;;10.60;99.90;;;;;;5002695;28;19930;-65
2022/10/13 05:48:47;;;;;;;;;;;10.60;99.90;;;;;;4998266;28;20301;-65
2022/10/13 05:51:16;;;;;;;;;;;10.70;99.90;;;;;;5003295;28;19926;-66
2022/10/13 05:53:46;;;;;;;;;;;10.70;99.90;;;;;;5001176;28;20021;-65
2022/10/13 05:56:15;;;;;;;;;;;10.70;99.90;;;;;;5006736;28;20336;-66
2022/10/13 05:58:44;;;;;;;;;;;10.70;99.90;;;;;;5007548;28;19933;-65
2022/10/13 06:01:13;;;;;;;;;;;10.60;99.90;;;;;;5006052;28;19973;-65
2022/10/13 06:03:40;;;;;;;;;;;10.70;99.90;;;;;;5007441;28;19933;-66
2022/10/13 06:06:07;;;;;;;;;;;10.70;99.90;;;;;;5008767;28;19926;-66
2022/10/13 06:08:34;;;;;;;;;;;10.60;99.90;;;;;;5008328;28;19976;-66
2022/10/13 06:11:03;;;;;;;;;;;10.60;99.90;;;;;;5009164;28;20400;-65
2022/10/13 06:13:30;;;;;;;;;;;10.60;99.90;;;;;;5008753;28;19987;-66
2022/10/13 06:15:57;;;;;;;;;;;10.60;99.90;;;;;;5005819;28;19932;-65
2022/10/13 06:18:23;;;;;;;;;;;10.70;99.90;;;;;;5012122;28;19938;-65
2022/10/13 06:20:50;;;;;;;;;;;10.80;99.90;;;;;;5010287;28;19925;-66
2022/10/13 06:23:17;;;;;;;;;;;10.80;99.90;;;;;;5012532;28;19980;-66
2022/10/13 06:25:47;;;;;;;;;;;10.80;99.90;;;;;;5010483;28;19926;-66
2022/10/13 06:28:17;;;;;;;;;;;10.90;99.90;;;;;;5008653;28;19936;-66
2022/10/13 06:30:46;;;;;;;;;;;10.90;99.90;;;;;;5008872;28;19925;-66
2022/10/13 06:33:13;;;;;;;;;;;11.00;99.90;;;;;;5021278;28;19925;-67
2022/10/13 06:35:40;;;;;;;;;;;11.00;99.90;;;;;;5010064;28;19925;-66
2022/10/13 06:38:08;;;;;;;;;;;11.00;99.90;;;;;;5002855;28;20027;-66
2022/10/13 06:40:36;;;;;;;;;;;11.00;99.90;;;;;;5006844;28;20325;-66
2022/10/13 06:43:03;;;;;;;;;;;11.10;99.90;;;;;;5001007;28;20281;-66
2022/10/13 06:45:33;;;;;;;;;;;11.20;99.90;;;;;;5003816;28;20339;-64
2022/10/13 06:48:00;;;;;;;;;;;11.20;99.90;;;;;;5006862;28;20131;-66
2022/10/13 06:50:28;;;;;;;;;;;11.30;99.90;;;;;;5003808;28;19976;-66
2022/10/13 06:52:55;;;;;;;;;;;11.40;99.90;;;;;;5010013;28;19925;-66
2022/10/13 06:55:22;;;;;;;;;;;11.40;99.90;;;;;;5001167;28;19926;-66
2022/10/13 06:57:48;;;;;;;;;;;11.40;99.90;;;;;;5005485;28;19925;-66
2022/10/13 07:00:15;;;;;;;;;;;11.50;99.90;;;;;;4999981;28;20348;-66
2022/10/13 07:02:45;;;;;;;;;;;11.50;99.90;;;;;;5004333;28;19952;-66
2022/10/13 07:05:13;;;;;;;;;;;11.60;99.90;;;;;;5004633;28;19933;-66
2022/10/13 07:07:40;;;;;;;;;;;11.70;99.90;;;;;;5004831;28;19933;-65
2022/10/13 07:10:07;;;;;;;;;;;11.80;99.90;;;;;;5006764;28;19926;-66
2022/10/13 07:12:33;;;;;;;;;;;11.90;99.90;;;;;;4996720;28;19926;-66
2022/10/13 07:15:00;;;;;;;;;;;12.00;99.90;;;;;;5007389;28;19948;-66
2022/10/13 07:17:27;;;;;;;;;;;12.10;99.90;;;;;;4996704;28;19926;-66
2022/10/13 07:19:55;;;;;;;;;;;12.10;99.90;;;;;;5009464;28;19932;-66
2022/10/13 07:22:22;;;;;;;;;;;12.20;99.90;;;;;;5009744;28;19933;-66
2022/10/13 07:24:49;;;;;;;;;;;12.20;99.90;;;;;;5007589;28;19929;-66
2022/10/13 07:27:15;;;;;;;;;;;12.30;99.90;;;;;;5002034;28;19929;-65
2022/10/13 07:29:42;;;;;;;;;;;12.30;99.90;;;;;;5005691;28;20331;-65
2022/10/13 07:32:09;;;;;;;;;;;12.40;99.90;;;;;;5007441;28;19961;-65
2022/10/13 07:34:35;;;;;;;;;;;12.40;99.90;;;;;;5004908;28;20035;-65
2022/10/13 07:37:04;;;;;;;;;;;12.50;99.90;;;;;;5009610;28;19976;-65
2022/10/13 07:39:32;;;;;;;;;;;12.60;99.90;;;;;;5003152;28;19936;-66
2022/10/13 07:41:59;;;;;;;;;;;12.70;99.90;;;;;;5008081;28;20380;-65
2022/10/13 07:44:25;;;;;;;;;;;12.70;99.90;;;;;;5003419;28;20358;-65
2022/10/13 07:46:52;;;;;;;;;;;12.90;99.90;;;;;;5005152;28;19929;-66
2022/10/13 07:49:19;;;;;;;;;;;13.00;99.90;;;;;;5000539;28;19932;-64
2022/10/13 07:51:46;;;;;;;;;;;13.10;99.90;;;;;;5003632;28;20297;-66
2022/10/13 07:54:14;;;;;;;;;;;13.30;99.90;;;;;;5009067;28;19925;-66
2022/10/13 07:56:41;;;;;;;;;;;13.40;99.90;;;;;;5009692;28;20547;-66
2022/10/13 07:59:09;;;;;;;;;;;13.60;99.90;;;;;;4997759;28;19930;-66
2022/10/13 08:01:36;;;;;;;;;;;13.70;99.90;;;;;;5007862;28;19926;-65
2022/10/13 08:04:03;;;;;;;;;;;13.80;99.90;;;;;;5004659;28;19932;-64
2022/10/13 08:06:30;;;;;;;;;;;14.00;99.90;;;;;;5004290;28;19932;-65
2022/10/13 08:08:59;;;;;;;;;;;14.10;99.90;;;;;;5004293;28;20020;-64
2022/10/13 08:11:27;;;;;;;;;;;14.30;99.90;;;;;;5006360;28;19930;-64
2022/10/13 08:13:54;;;;;;;;;;;14.40;99.90;;;;;;5007946;28;19948;-64
2022/10/13 08:16:21;;;;;;;;;;;14.50;99.90;;;;;;5007657;28;20370;-66
2022/10/13 08:18:48;;;;;;;;;;;14.60;99.90;;;;;;5008994;28;19929;-66
2022/10/13 08:21:16;;;;;;;;;;;14.70;99.90;;;;;;5002350;28;19975;-66
2022/10/13 08:23:43;;;;;;;;;;;14.80;99.90;;;;;;5002685;28;20487;-66
2022/10/13 08:26:14;;;;;;;;;;;14.80;99.90;;;;;;5007601;28;19925;-66
2022/10/13 08:28:42;;;;;;;;;;;14.90;99.90;;;;;;5001481;28;19937;-66
2022/10/13 08:31:09;;;;;;;;;;;14.90;99.90;;;;;;5005653;28;19929;-66
2022/10/13 08:33:36;;;;;;;;;;;15.00;99.90;;;;;;5003930;28;19933;-66
2022/10/13 08:36:06;;;;;;;;;;;15.00;99.90;;;;;;4997596;28;20408;-66
2022/10/13 08:38:32;;;;;;;;;;;15.20;99.90;;;;;;5001788;28;19930;-66
2022/10/13 08:40:59;;;;;;;;;;;15.20;99.90;;;;;;5003204;28;19972;-66
2022/10/13 08:43:26;;;;;;;;;;;15.20;99.90;;;;;;4996078;28;20371;-66
2022/10/13 08:45:58;;;;;;;;;;;15.30;99.90;;;;;;5006804;28;19976;-66
2022/10/13 08:48:27;;;;;;;;;;;15.50;99.90;;;;;;5003719;28;20451;-66
2022/10/13 08:50:55;;;;;;;;;;;15.60;99.90;;;;;;5006227;28;20343;-66
2022/10/13 08:53:25;;;;;;;;;;;15.70;99.90;;;;;;5004754;28;19979;-65
2022/10/13 08:55:55;;;;;;;;;;;15.90;99.90;;;;;;5009087;28;19925;-65
2022/10/13 08:58:23;;;;;;;;;;;16.10;99.90;;;;;;5006825;28;20277;-65
2022/10/13 09:00:51;;;;;;;;;;;16.30;99.90;;;;;;5003873;28;19930;-66
2022/10/13 09:03:25;;;;;;;;;;;16.40;99.90;;;;;;5009161;28;20392;-65
2022/10/13 09:06:06;;;;;;;;;;;16.40;99.90;;;;;;4999355;28;20407;-65
2022/10/13 09:08:39;;;;;;;;;;;16.60;99.90;;;;;;5008413;28;20479;-65
2022/10/13 09:11:06;;;;;;;;;;;16.70;99.90;;;;;;5000341;28;19933;-65
2022/10/13 09:13:33;;;;;;;;;;;16.70;99.90;;;;;;5008719;28;19980;-65
2022/10/13 09:16:00;;;;;;;;;;;16.80;99.90;;;;;;5001643;28;19926;-65
2022/10/13 09:18:31;;;;;;;;;;;16.80;99.90;;;;;;5009153;28;20112;-66
2022/10/13 09:21:15;;;;;;;;;;;17.00;99.90;;;;;;4995169;28;20368;-66
2022/10/13 09:23:42;;;;;;;;;;;17.00;99.90;;;;;;5003420;28;19933;-66
2022/10/13 09:26:14;;;;;;;;;;;16.90;99.90;;;;;;5021963;28;19937;-66
2022/10/13 09:28:41;;;;;;;;;;;16.80;99.90;;;;;;5005167;28;19936;-66
2022/10/13 09:31:14;;;;;;;;;;;16.80;99.90;;;;;;5006834;28;19980;-66
2022/10/13 09:33:43;;;;;;;;;;;16.70;99.90;;;;;;5018422;28;20447;-65
2022/10/13 09:36:11;;;;;;;;;;;16.70;99.90;;;;;;5010184;28;19925;-65
2022/10/13 09:38:39;;;;;;;;;;;16.60;99.90;;;;;;5010199;28;20382;-65
2022/10/13 09:41:07;;;;;;;;;;;16.50;99.90;;;;;;5011372;28;19930;-67
2022/10/13 09:43:36;;;;;;;;;;;16.50;99.90;;;;;;5009840;28;19926;-66
2022/10/13 09:46:04;;;;;;;;;;;16.30;99.90;;;;;;5006355;28;19925;-67
2022/10/13 09:48:32;;;;;;;;;;;16.20;99.90;;;;;;5004425;28;19925;-67
2022/10/13 09:51:01;;;;;;;;;;;16.20;99.90;;;;;;5012261;28;20020;-65
2022/10/13 09:53:31;;;;;;;;;;;16.20;99.90;;;;;;5009454;28;19925;-65
2022/10/13 09:56:08;;;;;;;;;;;16.10;99.90;;;;;;5008687;28;19932;-65
2022/10/13 09:58:36;;;;;;;;;;;16.00;99.90;;;;;;5004878;28;19980;-65
2022/10/13 10:01:03;;;;;;;;;;;15.90;99.90;;;;;;5012902;28;20014;-65
2022/10/13 10:03:33;;;;;;;;;;;15.80;99.90;;;;;;5010695;28;20350;-65
2022/10/13 10:06:02;;;;;;;;;;;15.80;99.90;;;;;;5013642;28;19926;-65
2022/10/13 10:08:31;;;;;;;;;;;15.80;99.90;;;;;;5010685;28;19995;-65
2022/10/13 10:11:00;;;;;;;;;;;15.90;99.90;;;;;;5006630;28;20343;-65
2022/10/13 10:13:27;;;;;;;;;;;15.90;99.90;;;;;;5013254;28;19929;-65
2022/10/13 10:15:56;;;;;;;;;;;15.90;99.90;;;;;;5011433;28;19929;-65
2022/10/13 10:18:27;;;;;;;;;;;15.90;99.90;;;;;;5013627;28;19996;-65
2022/10/13 10:20:59;;;;;;;;;;;16.00;99.90;;;;;;5013236;28;20023;-65
2022/10/13 10:23:32;;;;;;;;;;;15.90;99.90;;;;;;5013135;28;19933;-65
2022/10/13 10:26:00;;;;;;;;;;;15.90;99.90;;;;;;5012036;28;19956;-65
2022/10/13 10:28:36;;;;;;;;;;;16.00;99.90;;;;;;5013320;28;19957;-65
2022/10/13 10:31:06;;;;;;;;;;;16.00;99.90;;;;;;5007795;28;19976;-66
2022/10/13 10:33:37;;;;;;;;;;;15.80;99.90;;;;;;5008677;28;20030;-64
2022/10/13 10:36:06;;;;;;;;;;;15.80;99.90;;;;;;5011240;28;19957;-64
2022/10/13 10:38:39;;;;;;;;;;;15.80;99.90;;;;;;5001726;28;19960;-64
2022/10/13 10:41:12;;;;;;;;;;;15.90;99.90;;;;;;4998576;28;19926;-64
2022/10/13 10:43:46;;;;;;;;;;;15.80;99.90;;;;;;5002320;28;19980;-66
2022/10/13 10:46:17;;;;;;;;;;;15.80;99.90;;;;;;5003957;28;19937;-66
2022/10/13 10:48:46;;;;;;;;;;;15.80;99.90;;;;;;5000776;28;19926;-65
2022/10/13 10:51:14;;;;;;;;;;;15.70;99.90;;;;;;5005218;28;19926;-66
2022/10/13 10:53:48;;;;;;;;;;;15.60;99.90;;;;;;5002329;28;19930;-65
2022/10/13 10:56:17;;;;;;;;;;;15.60;99.90;;;;;;5004436;28;19925;-66
2022/10/13 10:58:49;;;;;;;;;;;15.70;99.90;;;;;;5003825;28;19926;-67
2022/10/13 11:01:22;;;;;;;;;;;15.70;99.90;;;;;;4998716;28;19925;-66
2022/10/13 11:03:54;;;;;;;;;;;15.70;99.90;;;;;;5004909;28;19925;-66
2022/10/13 11:06:26;;;;;;;;;;;15.80;99.90;;;;;;5003543;28;19941;-66
2022/10/13 11:08:54;;;;;;;;;;;15.80;99.90;;;;;;5004257;28;19961;-66
2022/10/13 11:11:32;;;;;;;;;;;15.70;99.90;;;;;;5005035;28;19925;-65
2022/10/13 11:14:00;;;;;;;;;;;15.60;99.90;;;;;;5021333;28;19933;-66
2022/10/13 11:16:28;;;;;;;;;;;15.60;99.90;;;;;;5008778;28;19925;-66
2022/10/13 11:18:57;;;;;;;;;;;15.60;99.90;;;;;;5006679;28;20399;-65
2022/10/13 11:21:47;;;;;;;;;;;15.60;99.90;;;;;;5023981;28;19925;-66
2022/10/13 11:24:29;;;;;;;;;;;15.60;99.90;;;;;;4996282;28;19941;-66
2022/10/13 11:27:17;;;;;;;;;;;15.60;99.90;;;;;;5006494;28;19929;-66
2022/10/13 11:29:53;;;;;;;;;;;15.60;99.90;;;;;;5001904;28;19938;-65
2022/10/13 11:32:41;;;;;;;;;;;15.60;99.90;;;;;;5004538;28;19925;-66
2022/10/13 11:35:19;;;;;;;;;;;15.60;99.90;;;;;;5003199;28;19930;-66
2022/10/13 11:37:51;;;;;;;;;;;15.70;99.90;;;;;;5006761;28;19925;-65
2022/10/13 11:40:23;;;;;;;;;;;15.90;99.90;;;;;;5003961;28;20360;-66
2022/10/13 11:43:08;;;;;;;;;;;15.90;99.90;;;;;;5003085;28;19933;-66
2022/10/13 11:45:59;;;;;;;;;;;15.80;99.90;;;;;;5005031;28;20305;-65
2022/10/13 11:48:34;;;;;;;;;;;15.90;99.90;;;;;;5002078;28;20466;-66
2022/10/13 11:51:08;;;;;;;;;;;16.10;99.90;;;;;;5006239;28;19932;-65
2022/10/13 11:53:42;;;;;;;;;;;16.30;99.90;;;;;;5003000;28;20356;-66
2022/10/13 11:56:18;;;;;;;;;;;16.40;99.90;;;;;;5008339;28;20316;-66
2022/10/13 11:58:46;;;;;;;;;;;16.40;99.90;;;;;;5005804;28;20292;-66
2022/10/13 12:01:15;;;;;;;;;;;16.70;99.90;;;;;;5004880;28;20451;-65
2022/10/13 12:03:43;;;;;;;;;;;16.80;99.90;;;;;;5007720;28;20021;-65
2022/10/13 12:06:31;;;;;;;;;;;16.90;99.90;;;;;;5009174;28;20383;-67
2022/10/13 12:09:00;;;;;;;;;;;16.80;99.90;;;;;;5004024;28;19925;-66
2022/10/13 12:11:28;;;;;;;;;;;16.70;99.90;;;;;;5001798;28;19926;-66
2022/10/13 12:13:55;;;;;;;;;;;16.60;99.90;;;;;;5002257;28;19930;-66
2022/10/13 12:16:23;;;;;;;;;;;16.60;99.90;;;;;;5000476;28;19929;-67
2022/10/13 12:18:51;;;;;;;;;;;16.70;99.90;;;;;;5007078;28;19930;-68
2022/10/13 12:21:19;;;;;;;;;;;16.80;99.90;;;;;;5003709;28;19929;-66
2022/10/13 12:23:46;;;;;;;;;;;16.90;99.90;;;;;;5006053;28;19949;-65
2022/10/13 12:26:15;;;;;;;;;;;17.00;99.90;;;;;;5004191;28;19925;-66
2022/10/13 12:28:48;;;;;;;;;;;16.90;99.90;;;;;;5002169;28;19926;-66
2022/10/13 12:31:18;;;;;;;;;;;16.80;99.90;;;;;;5002848;28;19925;-66
2022/10/13 12:33:51;;;;;;;;;;;16.80;99.90;;;;;;5002367;28;19925;-66
2022/10/13 12:36:18;;;;;;;;;;;16.70;99.90;;;;;;5006296;28;19925;-66
2022/10/13 12:38:48;;;;;;;;;;;16.70;99.90;;;;;;5003437;28;19926;-66
2022/10/13 12:41:18;;;;;;;;;;;16.70;99.90;;;;;;5004736;28;20400;-66
2022/10/13 12:43:45;;;;;;;;;;;16.70;99.90;;;;;;5001139;28;19929;-65
2022/10/13 12:46:12;;;;;;;;;;;16.70;99.90;;;;;;5003975;28;19980;-66
2022/10/13 12:48:39;;;;;;;;;;;16.70;99.90;;;;;;5000678;28;20360;-66
2022/10/13 12:51:09;;;;;;;;;;;16.70;99.90;;;;;;5001169;28;19934;-66
2022/10/13 12:53:37;;;;;;;;;;;16.70;99.90;;;;;;4999448;28;20049;-66
2022/10/13 12:56:05;;;;;;;;;;;16.50;99.90;;;;;;5001255;28;19988;-66
2022/10/13 12:58:35;;;;;;;;;;;16.50;99.90;;;;;;4999037;28;20451;-66
2022/10/13 13:01:09;;;;;;;;;;;16.50;99.90;;;;;;4996109;28;19933;-66
2022/10/13 13:03:37;;;;;;;;;;;16.40;99.90;;;;;;5001524;28;19926;-66
2022/10/13 13:06:10;;;;;;;;;;;16.30;99.90;;;;;;5002382;28;19925;-66
2022/10/13 13:08:40;;;;;;;;;;;16.30;99.90;;;;;;5002932;28;19962;-65
2022/10/13 13:11:17;;;;;;;;;;;16.20;99.90;;;;;;5001463;28;19932;-66
2022/10/13 13:13:44;;;;;;;;;;;16.20;99.90;;;;;;5000157;28;19930;-66
2022/10/13 13:16:14;;;;;;;;;;;16.10;99.90;;;;;;5006279;28;19976;-66
2022/10/13 13:18:42;;;;;;;;;;;16.10;99.90;;;;;;5004148;28;19926;-66
2022/10/13 13:21:11;;;;;;;;;;;16.10;99.90;;;;;;5011836;28;19985;-66
2022/10/13 13:23:41;;;;;;;;;;;16.10;99.90;;;;;;5005815;28;19925;-66
2022/10/13 13:26:13;;;;;;;;;;;16.30;99.90;;;;;;5005177;28;19925;-66
2022/10/13 13:28:41;;;;;;;;;;;16.30;99.90;;;;;;5005922;28;20407;-66
2022/10/13 13:31:10;;;;;;;;;;;16.30;99.90;;;;;;5004142;28;20013;-65
2022/10/13 13:33:37;;;;;;;;;;;16.30;99.90;;;;;;5006154;28;19926;-66
2022/10/13 13:36:04;;;;;;;;;;;16.30;99.90;;;;;;5005006;28;19929;-65
2022/10/13 13:38:32;;;;;;;;;;;16.30;99.90;;;;;;5010516;28;20345;-66
2022/10/13 13:40:59;;;;;;;;;;;16.30;99.90;;;;;;5003620;28;19925;-66
2022/10/13 13:43:26;;;;;;;;;;;16.30;99.90;;;;;;5006444;28;19925;-66
2022/10/13 13:45:52;;;;;;;;;;;16.30;99.90;;;;;;5009732;28;19926;-67
2022/10/13 13:48:19;;;;;;;;;;;16.30;99.90;;;;;;5002125;28;19976;-66
2022/10/13 13:50:47;;;;;;;;;;;16.30;99.90;;;;;;5004898;28;19945;-67
2022/10/13 13:53:13;;;;;;;;;;;16.30;99.90;;;;;;5003327;28;19933;-66
2022/10/13 13:55:42;;;;;;;;;;;16.20;99.90;;;;;;5008861;28;20458;-65
2022/10/13 13:58:09;;;;;;;;;;;16.30;99.90;;;;;;5009821;28;19937;-66
2022/10/13 14:00:36;;;;;;;;;;;16.20;99.90;;;;;;5004160;28;20348;-66
2022/10/13 14:03:03;;;;;;;;;;;16.20;99.90;;;;;;5007289;28;20384;-65
2022/10/13 14:05:30;;;;;;;;;;;16.20;99.90;;;;;;4999732;28;19925;-66
2022/10/13 14:07:57;;;;;;;;;;;16.20;99.90;;;;;;5006032;28;19925;-66
2022/10/13 14:10:25;;;;;;;;;;;16.20;99.90;;;;;;5001027;28;20290;-66
2022/10/13 14:12:53;;;;;;;;;;;16.30;99.90;;;;;;5008400;28;19932;-66
2022/10/13 14:15:20;;;;;;;;;;;16.30;99.90;;;;;;5002781;28;19952;-66
2022/10/13 14:17:47;;;;;;;;;;;16.30;99.90;;;;;;5005840;28;19940;-66
2022/10/13 14:20:13;;;;;;;;;;;16.40;99.90;;;;;;5004296;28;20384;-66
2022/10/13 14:22:41;;;;;;;;;;;16.40;99.90;;;;;;5009356;28;19926;-67
2022/10/13 14:25:09;;;;;;;;;;;16.30;99.90;;;;;;5008551;28;20289;-66
2022/10/13 14:27:36;;;;;;;;;;;16.30;99.90;;;;;;5004397;28;19938;-67
2022/10/13 14:30:06;;;;;;;;;;;16.20;99.90;;;;;;5022861;28;19929;-67
2022/10/13 14:32:32;;;;;;;;;;;16.10;99.90;;;;;;5000435;28;19926;-67
2022/10/13 14:34:59;;;;;;;;;;;16.10;99.90;;;;;;5000187;28;19925;-67
2022/10/13 14:37:26;;;;;;;;;;;16.00;99.90;;;;;;5008037;28;19983;-67
2022/10/13 14:39:53;;;;;;;;;;;15.90;99.90;;;;;;5008623;28;19929;-66
2022/10/13 14:42:20;;;;;;;;;;;15.80;99.90;;;;;;4998635;28;20341;-67
2022/10/13 14:44:46;;;;;;;;;;;15.80;99.90;;;;;;5003078;28;19933;-67
2022/10/13 14:47:15;;;;;;;;;;;15.80;99.90;;;;;;5000723;28;19926;-67
2022/10/13 14:49:41;;;;;;;;;;;15.70;99.90;;;;;;5005605;28;19925;-67
2022/10/13 14:52:08;;;;;;;;;;;15.70;99.90;;;;;;5003415;28;19925;-67
2022/10/13 14:54:35;;;;;;;;;;;15.60;99.90;;;;;;5008358;28;19926;-67
2022/10/13 14:57:04;;;;;;;;;;;15.60;99.90;;;;;;5002376;28;19929;-68
2022/10/13 14:59:31;;;;;;;;;;;15.60;99.90;;;;;;5002163;28;19926;-67
2022/10/13 15:01:57;;;;;;;;;;;15.50;99.90;;;;;;5034609;23;19929;-68
2022/10/13 15:04:25;;;;;;;;;;;15.50;99.90;;;;;;5011658;28;19925;-68
2022/10/13 15:06:52;;;;;;;;;;;15.40;99.90;;;;;;5011817;28;20015;-68
2022/10/13 15:09:19;;;;;;;;;;;15.40;99.90;;;;;;5012270;28;20028;-68
2022/10/13 15:11:46;;;;;;;;;;;15.40;99.90;;;;;;5007483;28;19976;-69
2022/10/13 15:14:13;;;;;;;;;;;15.40;99.90;;;;;;5007655;28;20408;-68
2022/10/13 15:16:39;;;;;;;;;;;15.40;99.90;;;;;;4993144;28;20028;-67
2022/10/13 15:19:06;;;;;;;;;;;15.40;99.90;;;;;;4990570;28;20443;-68
2022/10/13 15:21:34;;;;;;;;;;;15.30;99.90;;;;;;4990594;28;20005;-68
2022/10/13 15:24:03;;;;;;;;;;;15.30;99.90;;;;;;4991144;28;20021;-67
2022/10/13 15:26:29;;;;;;;;;;;15.30;99.90;;;;;;4990704;28;20007;-68
2022/10/13 15:28:56;;;;;;;;;;;15.30;99.90;;;;;;4991013;28;19932;-70
2022/10/13 15:31:23;;;;;;;;;;;15.20;99.90;;;;;;4990457;28;19933;-68
2022/10/13 15:33:51;;;;;;;;;;;15.20;99.90;;;;;;4991193;28;20369;-68
2022/10/13 15:36:19;;;;;;;;;;;15.30;99.90;;;;;;4991081;28;19980;-68
2022/10/13 15:38:47;;;;;;;;;;;15.20;99.90;;;;;;4989856;28;19926;-67
2022/10/13 15:41:14;;;;;;;;;;;15.20;99.90;;;;;;4987140;28;19981;-68
2022/10/13 15:43:41;;;;;;;;;;;15.20;99.90;;;;;;4990913;28;19926;-68
2022/10/13 15:46:10;;;;;;;;;;;15.10;99.90;;;;;;4991381;28;19926;-68
2022/10/13 15:48:37;;;;;;;;;;;15.00;99.90;;;;;;4991382;28;20344;-68
2022/10/13 15:51:08;;;;;;;;;;;15.00;99.90;;;;;;5006264;28;19927;-68
2022/10/13 15:53:35;;;;;;;;;;;15.00;99.90;;;;;;5007455;28;20152;-68
2022/10/13 15:56:03;;;;;;;;;;;15.00;99.90;;;;;;4986010;28;19926;-68
2022/10/13 15:58:30;;;;;;;;;;;15.00;99.90;;;;;;4985430;28;19926;-68
2022/10/13 16:00:57;;;;;;;;;;;15.00;99.90;;;;;;4993882;28;19926;-68
2022/10/13 16:03:28;;;;;;;;;;;15.00;99.90;;;;;;4991088;28;19933;-66
2022/10/13 16:05:55;;;;;;;;;;;15.10;99.90;;;;;;4989524;28;19926;-67
2022/10/13 16:08:22;;;;;;;;;;;15.00;99.90;;;;;;4990558;28;20451;-67
2022/10/13 16:10:48;;;;;;;;;;;14.90;99.90;;;;;;4998895;28;19930;-70
2022/10/13 16:13:17;;;;;;;;;;;14.80;99.90;;;;;;4991011;28;19953;-67
2022/10/13 16:15:43;;;;;;;;;;;14.70;99.90;;;;;;4991484;28;20381;-67
2022/10/13 16:18:10;;;;;;;;;;;14.70;99.90;;;;;;4987675;28;19985;-67
2022/10/13 16:20:39;;;;;;;;;;;14.60;99.90;;;;;;4991193;28;19926;-68
2022/10/13 16:23:06;;;;;;;;;;;14.50;99.90;;;;;;4985025;28;20405;-67
2022/10/13 16:25:32;;;;;;;;;;;14.40;99.90;;;;;;5006014;28;19930;-67
2022/10/13 16:27:59;;;;;;;;;;;14.30;99.90;;;;;;4990906;28;19930;-69
2022/10/13 16:30:29;;;;;;;;;;;14.30;99.90;;;;;;4990604;28;19925;-66
2022/10/13 16:32:55;;;;;;;;;;;14.20;99.90;;;;;;4990969;28;19926;-67
2022/10/13 16:35:22;;;;;;;;;;;14.10;99.90;;;;;;4994417;28;20341;-67
2022/10/13 16:37:49;;;;;;;;;;;14.10;99.90;;;;;;4990544;28;19929;-67
2022/10/13 16:40:16;;;;;;;;;;;14.00;99.90;;;;;;4990529;28;19980;-69
2022/10/13 16:42:43;;;;;;;;;;;13.90;99.90;;;;;;4992350;28;19926;-67
2022/10/13 16:45:11;;;;;;;;;;;13.90;99.90;;;;;;4985015;28;19926;-67
2022/10/13 16:47:40;;;;;;;;;;;13.90;99.90;;;;;;4987898;28;19968;-68
2022/10/13 16:50:08;;;;;;;;;;;13.80;99.90;;;;;;4990314;28;19926;-68
2022/10/13 16:52:35;;;;;;;;;;;13.70;99.90;;;;;;4984812;28;19957;-67
2022/10/13 16:55:02;;;;;;;;;;;13.70;99.90;;;;;;4990939;28;19932;-67
2022/10/13 16:57:29;;;;;;;;;;;13.70;99.90;;;;;;4986704;28;19926;-66
2022/10/13 16:59:55;;;;;;;;;;;13.60;99.90;;;;;;4990369;28;19926;-68
2022/10/13 17:02:28;;;;;;;;;;;13.60;99.90;;;;;;4984465;28;19926;-67
2022/10/13 17:04:56;;;;;;;;;;;13.60;99.90;;;;;;5006824;28;19949;-68
2022/10/13 17:07:23;;;;;;;;;;;13.60;99.90;;;;;;4990505;28;19932;-67
2022/10/13 17:09:49;;;;;;;;;;;13.60;99.90;;;;;;4989232;28;20001;-67
2022/10/13 17:12:16;;;;;;;;;;;13.60;99.90;;;;;;4989733;28;20025;-68
2022/10/13 17:14:43;;;;;;;;;;;13.60;99.90;;;;;;5001228;28;19930;-66
2022/10/13 17:17:10;;;;;;;;;;;13.60;99.90;;;;;;4990062;28;19980;-66
2022/10/13 17:19:37;;;;;;;;;;;13.60;99.90;;;;;;4989399;28;19976;-68
2022/10/13 17:22:05;;;;;;;;;;;13.60;99.90;;;;;;4989127;28;19973;-69
2022/10/13 17:24:31;;;;;;;;;;;13.60;99.90;;;;;;4989617;28;19933;-67